createdAt,value
2018-05-03T00:00:57.284Z,0.00
2018-05-03T00:01:57.338Z,0.00
2018-05-03T00:02:57.267Z,0.00
2018-05-03T00:03:57.253Z,0.00
2018-05-03T00:04:57.245Z,0.00
2018-05-03T00:05:57.235Z,0.00
2018-05-03T00:06:57.226Z,0.00
2018-05-03T00:07:57.223Z,0.00
2018-05-03T00:08:57.208Z,0.00
2018-05-03T00:09:57.198Z,0.00
2018-05-03T00:10:57.190Z,0.00
2018-05-03T00:11:57.181Z,0.00
2018-05-03T00:12:57.171Z,0.00
2018-05-03T00:13:57.159Z,0.00
2018-05-03T00:14:57.173Z,0.00
2018-05-03T00:15:57.147Z,0.00
2018-05-03T00:16:57.137Z,0.00
2018-05-03T00:17:57.125Z,0.00
2018-05-03T00:18:57.116Z,0.00
2018-05-03T00:19:57.108Z,0.00
2018-05-03T00:20:57.095Z,0.00
2018-05-03T00:21:57.087Z,0.00
2018-05-03T00:22:57.077Z,0.00
2018-05-03T00:23:57.071Z,0.00
2018-05-03T00:24:57.058Z,0.00
2018-05-03T00:25:57.049Z,0.00
2018-05-03T00:26:57.040Z,0.00
2018-05-03T00:27:57.031Z,0.00
2018-05-03T00:28:57.024Z,0.00
2018-05-03T00:29:57.012Z,0.00
2018-05-03T00:30:57.005Z,0.00
2018-05-03T00:31:56.994Z,0.00
2018-05-03T00:32:56.984Z,0.00
2018-05-03T00:33:56.977Z,0.00
2018-05-03T00:34:56.965Z,0.00
2018-05-03T00:35:56.956Z,0.00
2018-05-03T00:36:56.944Z,0.00
2018-05-03T00:37:56.938Z,0.00
2018-05-03T00:38:56.927Z,0.00
2018-05-03T00:39:56.919Z,0.00
2018-05-03T00:40:56.906Z,0.00
2018-05-03T00:41:56.899Z,0.00
2018-05-03T00:42:56.894Z,0.00
2018-05-03T00:43:56.879Z,0.00
2018-05-03T00:44:56.872Z,0.00
2018-05-03T00:45:56.861Z,0.00
2018-05-03T00:46:56.855Z,0.00
2018-05-03T00:47:56.843Z,0.00
2018-05-03T00:48:56.841Z,0.00
2018-05-03T00:49:56.821Z,0.00
2018-05-03T00:50:56.813Z,0.00
2018-05-03T00:51:56.803Z,0.00
2018-05-03T00:52:56.793Z,0.00
2018-05-03T00:53:56.785Z,0.00
2018-05-03T00:54:56.776Z,0.00
2018-05-03T00:55:56.766Z,0.00
2018-05-03T00:56:56.754Z,0.00
2018-05-03T00:57:56.748Z,0.00
2018-05-03T00:58:56.739Z,0.00
2018-05-03T00:59:56.728Z,0.00
2018-05-03T01:00:56.717Z,0.00
2018-05-03T01:01:56.709Z,0.00
2018-05-03T01:02:56.700Z,0.00
2018-05-03T01:03:56.690Z,0.00
2018-05-03T01:04:56.680Z,0.00
2018-05-03T01:05:56.673Z,0.00
2018-05-03T01:06:56.660Z,0.00
2018-05-03T01:07:56.652Z,0.00
2018-05-03T01:08:56.642Z,0.00
2018-05-03T01:09:56.636Z,0.00
2018-05-03T01:10:56.621Z,0.00
2018-05-03T01:11:56.612Z,0.00
2018-05-03T01:12:56.605Z,0.00
2018-05-03T01:13:56.598Z,0.00
2018-05-03T01:14:56.585Z,0.00
2018-05-03T01:15:56.575Z,0.00
2018-05-03T01:16:56.569Z,0.00
2018-05-03T01:17:56.558Z,0.00
2018-05-03T01:18:56.546Z,0.00
2018-05-03T01:19:56.536Z,0.00
2018-05-03T01:20:56.526Z,0.00
2018-05-03T01:21:56.516Z,0.00
2018-05-03T01:22:56.506Z,0.00
2018-05-03T01:23:56.496Z,0.00
2018-05-03T01:24:56.485Z,0.00
2018-05-03T01:25:56.475Z,0.00
2018-05-03T01:26:56.470Z,0.00
2018-05-03T01:27:56.456Z,0.00
2018-05-03T01:28:56.448Z,0.00
2018-05-03T01:29:56.437Z,0.00
2018-05-03T01:30:56.429Z,0.00
2018-05-03T01:31:56.421Z,0.00
2018-05-03T01:32:56.410Z,0.00
2018-05-03T01:33:56.399Z,0.00
2018-05-03T01:34:56.390Z,0.00
2018-05-03T01:35:56.380Z,0.00
2018-05-03T01:36:56.368Z,0.00
2018-05-03T01:37:56.362Z,0.00
2018-05-03T01:38:56.352Z,0.00
2018-05-03T01:39:56.341Z,0.00
2018-05-03T01:40:56.328Z,0.00
2018-05-03T01:41:56.321Z,0.00
2018-05-03T01:42:56.312Z,0.00
2018-05-03T01:43:56.301Z,0.00
2018-05-03T01:44:56.292Z,0.00
2018-05-03T01:45:56.283Z,0.00
2018-05-03T01:46:56.274Z,0.00
2018-05-03T01:47:56.263Z,0.00
2018-05-03T01:48:56.252Z,0.00
2018-05-03T01:49:56.248Z,0.00
2018-05-03T01:50:56.232Z,0.00
2018-05-03T01:51:56.223Z,0.00
2018-05-03T01:52:56.216Z,0.00
2018-05-03T01:53:56.203Z,0.00
2018-05-03T01:54:56.195Z,0.00
2018-05-03T01:55:56.193Z,0.00
2018-05-03T01:56:56.176Z,0.00
2018-05-03T01:57:56.165Z,0.00
2018-05-03T01:58:56.158Z,0.00
2018-05-03T01:59:56.148Z,0.00
2018-05-03T02:00:56.134Z,0.00
2018-05-03T02:01:56.127Z,0.00
2018-05-03T02:02:56.121Z,0.00
2018-05-03T02:03:56.106Z,0.00
2018-05-03T02:04:56.094Z,0.00
2018-05-03T02:05:56.088Z,0.00
2018-05-03T02:06:56.077Z,0.00
2018-05-03T02:07:56.071Z,0.00
2018-05-03T02:08:56.058Z,0.00
2018-05-03T02:09:56.046Z,0.00
2018-05-03T02:10:56.038Z,0.00
2018-05-03T02:11:56.032Z,0.00
2018-05-03T02:12:56.016Z,0.00
2018-05-03T02:13:56.007Z,0.00
2018-05-03T02:14:56.002Z,0.00
2018-05-03T02:15:55.990Z,0.00
2018-05-03T02:16:55.978Z,0.00
2018-05-03T02:17:55.970Z,0.00
2018-05-03T02:18:55.958Z,0.00
2018-05-03T02:19:55.951Z,0.00
2018-05-03T02:20:55.939Z,0.00
2018-05-03T02:21:55.930Z,0.00
2018-05-03T02:22:55.920Z,0.00
2018-05-03T02:23:55.911Z,0.00
2018-05-03T02:24:55.901Z,0.00
2018-05-03T02:25:55.891Z,0.00
2018-05-03T02:26:55.887Z,0.00
2018-05-03T02:27:55.875Z,0.00
2018-05-03T02:28:55.865Z,0.00
2018-05-03T02:29:55.853Z,0.00
2018-05-03T02:30:55.844Z,0.00
2018-05-03T02:31:55.833Z,0.00
2018-05-03T02:32:55.822Z,0.00
2018-05-03T02:33:55.814Z,0.00
2018-05-03T02:34:55.804Z,0.00
2018-05-03T02:35:55.793Z,0.00
2018-05-03T02:36:55.789Z,0.00
2018-05-03T02:37:55.774Z,0.00
2018-05-03T02:38:55.766Z,0.00
2018-05-03T02:39:55.756Z,0.00
2018-05-03T02:40:55.744Z,0.00
2018-05-03T02:41:55.737Z,0.00
2018-05-03T02:42:55.725Z,0.00
2018-05-03T02:43:55.716Z,0.00
2018-05-03T02:44:55.707Z,0.00
2018-05-03T02:45:55.696Z,0.00
2018-05-03T02:46:55.690Z,0.00
2018-05-03T02:47:55.675Z,0.00
2018-05-03T02:48:55.665Z,0.00
2018-05-03T02:49:55.661Z,0.00
2018-05-03T02:50:55.645Z,0.00
2018-05-03T02:51:55.639Z,0.00
2018-05-03T02:52:55.627Z,0.00
2018-05-03T02:53:55.618Z,0.00
2018-05-03T02:54:55.607Z,0.00
2018-05-03T02:55:55.599Z,0.00
2018-05-03T02:56:55.588Z,0.00
2018-05-03T02:57:55.578Z,0.00
2018-05-03T02:58:55.569Z,0.00
2018-05-03T02:59:55.557Z,0.00
2018-05-03T03:00:55.548Z,0.00
2018-05-03T03:01:55.538Z,0.00
2018-05-03T03:02:55.530Z,0.00
2018-05-03T03:03:55.527Z,0.00
2018-05-03T03:04:55.506Z,0.00
2018-05-03T03:05:55.500Z,0.00
2018-05-03T03:06:55.491Z,0.00
2018-05-03T03:07:55.480Z,0.00
2018-05-03T03:08:55.470Z,0.00
2018-05-03T03:09:55.463Z,0.00
2018-05-03T03:10:55.450Z,0.00
2018-05-03T03:11:55.437Z,0.00
2018-05-03T03:12:55.429Z,0.00
2018-05-03T03:13:55.417Z,0.00
2018-05-03T03:14:55.407Z,0.00
2018-05-03T03:15:55.399Z,0.00
2018-05-03T03:16:55.388Z,0.00
2018-05-03T03:17:55.376Z,0.00
2018-05-03T03:18:55.368Z,0.00
2018-05-03T03:19:55.357Z,0.00
2018-05-03T03:20:55.346Z,0.00
2018-05-03T03:21:55.373Z,0.00
2018-05-03T03:22:55.328Z,0.00
2018-05-03T03:23:55.316Z,0.00
2018-05-03T03:24:55.307Z,0.00
2018-05-03T03:25:55.295Z,0.00
2018-05-03T03:26:55.285Z,0.00
2018-05-03T03:27:55.276Z,0.00
2018-05-03T03:28:55.265Z,0.00
2018-05-03T03:29:55.254Z,0.00
2018-05-03T03:30:55.246Z,0.00
2018-05-03T03:31:55.235Z,0.00
2018-05-03T03:32:55.226Z,0.00
2018-05-03T03:33:55.212Z,0.00
2018-05-03T03:34:55.203Z,0.00
2018-05-03T03:35:55.193Z,0.00
2018-05-03T03:36:55.181Z,0.00
2018-05-03T03:37:55.171Z,0.00
2018-05-03T03:38:55.165Z,0.00
2018-05-03T03:39:55.153Z,0.00
2018-05-03T03:40:55.139Z,0.00
2018-05-03T03:41:55.130Z,0.00
2018-05-03T03:42:55.120Z,0.00
2018-05-03T03:43:55.118Z,0.00
2018-05-03T03:44:55.100Z,0.00
2018-05-03T03:45:55.085Z,0.00
2018-05-03T03:46:55.077Z,0.00
2018-05-03T03:47:55.069Z,0.00
2018-05-03T03:48:55.057Z,0.00
2018-05-03T03:49:55.046Z,0.00
2018-05-03T03:50:55.035Z,0.00
2018-05-03T03:51:55.024Z,0.00
2018-05-03T03:52:55.014Z,0.00
2018-05-03T03:53:55.002Z,0.00
2018-05-03T03:54:54.991Z,0.00
2018-05-03T03:55:54.981Z,0.00
2018-05-03T03:56:54.970Z,0.00
2018-05-03T03:57:54.959Z,0.00
2018-05-03T03:58:54.949Z,0.00
2018-05-03T03:59:54.942Z,0.00
2018-05-03T04:00:54.932Z,0.00
2018-05-03T04:01:54.917Z,0.00
2018-05-03T04:02:54.915Z,0.00
2018-05-03T04:03:54.897Z,0.00
2018-05-03T04:04:54.886Z,0.00
2018-05-03T04:05:54.878Z,0.00
2018-05-03T04:06:54.870Z,0.00
2018-05-03T04:07:54.851Z,0.00
2018-05-03T04:08:54.844Z,0.00
2018-05-03T04:09:54.830Z,0.00
2018-05-03T04:10:54.823Z,0.00
2018-05-03T04:11:54.816Z,0.00
2018-05-03T04:12:54.798Z,0.00
2018-05-03T04:13:54.788Z,0.00
2018-05-03T04:14:54.777Z,0.00
2018-05-03T04:15:54.767Z,0.00
2018-05-03T04:16:54.758Z,0.00
2018-05-03T04:17:54.745Z,0.00
2018-05-03T04:18:54.736Z,0.00
2018-05-03T04:19:54.724Z,0.00
2018-05-03T04:20:54.714Z,0.00
2018-05-03T04:21:54.704Z,0.00
2018-05-03T04:22:54.689Z,0.00
2018-05-03T04:23:54.680Z,0.00
2018-05-03T04:24:54.669Z,0.00
2018-05-03T04:25:54.660Z,0.00
2018-05-03T04:26:54.650Z,0.00
2018-05-03T04:27:54.635Z,0.00
2018-05-03T04:28:54.623Z,0.00
2018-05-03T04:29:54.613Z,0.00
2018-05-03T04:30:54.602Z,0.00
2018-05-03T04:31:54.594Z,0.00
2018-05-03T04:32:54.581Z,0.00
2018-05-03T04:33:54.573Z,0.00
2018-05-03T04:34:54.560Z,0.00
2018-05-03T04:35:54.555Z,0.00
2018-05-03T04:36:54.538Z,0.00
2018-05-03T04:37:54.524Z,0.00
2018-05-03T04:38:54.516Z,0.00
2018-05-03T04:39:54.505Z,0.00
2018-05-03T04:40:54.494Z,0.00
2018-05-03T04:41:54.484Z,0.00
2018-05-03T04:42:54.474Z,0.00
2018-05-03T04:43:54.463Z,0.00
2018-05-03T04:44:54.453Z,0.00
2018-05-03T04:45:54.440Z,0.00
2018-05-03T04:46:54.520Z,0.00
2018-05-03T04:47:54.421Z,0.00
2018-05-03T04:48:54.408Z,0.00
2018-05-03T04:49:54.401Z,0.00
2018-05-03T04:50:54.388Z,0.00
2018-05-03T04:51:54.380Z,0.00
2018-05-03T04:52:54.366Z,0.00
2018-05-03T04:53:54.357Z,0.00
2018-05-03T04:54:54.347Z,0.00
2018-05-03T04:55:54.336Z,0.00
2018-05-03T04:56:54.326Z,0.00
2018-05-03T04:57:54.316Z,0.00
2018-05-03T04:58:54.303Z,0.00
2018-05-03T04:59:54.299Z,0.00
2018-05-03T05:00:54.284Z,0.00
2018-05-03T05:01:54.273Z,0.00
2018-05-03T05:02:54.260Z,0.00
2018-05-03T05:03:54.253Z,0.00
2018-05-03T05:04:54.241Z,0.00
2018-05-03T05:05:54.228Z,0.00
2018-05-03T05:06:54.220Z,0.00
2018-05-03T05:07:54.208Z,0.00
2018-05-03T05:08:54.195Z,0.00
2018-05-03T05:09:54.192Z,0.00
2018-05-03T05:10:54.175Z,0.00
2018-05-03T05:11:54.169Z,0.00
2018-05-03T05:12:54.158Z,0.00
2018-05-03T05:13:54.147Z,0.00
2018-05-03T05:14:54.136Z,0.00
2018-05-03T05:15:54.130Z,0.00
2018-05-03T05:16:54.115Z,0.00
2018-05-03T05:17:54.165Z,0.00
2018-05-03T05:18:54.098Z,0.00
2018-05-03T05:19:54.085Z,0.00
2018-05-03T05:20:54.077Z,0.00
2018-05-03T05:21:54.062Z,0.00
2018-05-03T05:22:54.053Z,0.00
2018-05-03T05:23:54.046Z,0.00
2018-05-03T05:24:54.043Z,0.00
2018-05-03T05:25:54.024Z,0.00
2018-05-03T05:26:54.015Z,0.00
2018-05-03T05:27:53.999Z,0.00
2018-05-03T05:28:53.989Z,0.00
2018-05-03T05:29:53.981Z,0.00
2018-05-03T05:30:53.971Z,5.63
2018-05-03T05:31:53.958Z,5.63
2018-05-03T05:32:53.948Z,5.63
2018-05-03T05:33:53.939Z,5.63
2018-05-03T05:34:53.927Z,5.63
2018-05-03T05:35:53.915Z,5.63
2018-05-03T05:36:53.908Z,5.63
2018-05-03T05:37:53.894Z,5.63
2018-05-03T05:38:53.915Z,5.63
2018-05-03T05:39:53.874Z,5.63
2018-05-03T05:40:53.861Z,5.63
2018-05-03T05:41:53.853Z,11.25
2018-05-03T05:42:53.843Z,11.25
2018-05-03T05:43:53.834Z,11.25
2018-05-03T05:44:53.820Z,11.25
2018-05-03T05:45:53.808Z,11.25
2018-05-03T05:46:53.798Z,11.25
2018-05-03T05:47:53.792Z,16.88
2018-05-03T05:48:53.775Z,16.88
2018-05-03T05:49:53.764Z,16.88
2018-05-03T05:50:53.755Z,11.25
2018-05-03T05:51:53.743Z,11.25
2018-05-03T05:52:53.730Z,11.25
2018-05-03T05:53:53.720Z,11.25
2018-05-03T05:54:53.715Z,11.25
2018-05-03T05:55:53.700Z,11.25
2018-05-03T05:56:53.687Z,11.25
2018-05-03T05:57:53.679Z,11.25
2018-05-03T05:58:53.668Z,11.25
2018-05-03T05:59:53.656Z,11.25
2018-05-03T06:00:53.644Z,11.25
2018-05-03T06:01:53.634Z,5.63
2018-05-03T06:02:53.626Z,5.63
2018-05-03T06:03:53.614Z,5.63
2018-05-03T06:04:53.606Z,11.25
2018-05-03T06:05:53.592Z,11.25
2018-05-03T06:06:53.581Z,11.25
2018-05-03T06:07:53.576Z,11.25
2018-05-03T06:08:53.561Z,11.25
2018-05-03T06:09:53.557Z,11.25
2018-05-03T06:10:53.541Z,11.25
2018-05-03T06:11:53.527Z,11.25
2018-05-03T06:12:53.522Z,11.25
2018-05-03T06:13:53.510Z,11.25
2018-05-03T06:14:53.496Z,11.25
2018-05-03T06:15:53.485Z,11.25
2018-05-03T06:16:53.476Z,16.88
2018-05-03T06:17:53.466Z,16.88
2018-05-03T06:18:53.456Z,16.88
2018-05-03T06:19:53.443Z,16.88
2018-05-03T06:20:53.432Z,16.88
2018-05-03T06:21:53.420Z,16.88
2018-05-03T06:22:53.410Z,16.88
2018-05-03T06:23:53.402Z,16.88
2018-05-03T06:24:53.390Z,16.88
2018-05-03T06:25:53.404Z,16.88
2018-05-03T06:26:53.366Z,16.88
2018-05-03T06:27:53.357Z,16.88
2018-05-03T06:28:53.345Z,16.88
2018-05-03T06:29:53.336Z,16.88
2018-05-03T06:30:53.326Z,16.88
2018-05-03T06:31:53.313Z,16.88
2018-05-03T06:32:53.303Z,16.88
2018-05-03T06:33:53.293Z,16.88
2018-05-03T06:34:53.286Z,16.88
2018-05-03T06:35:53.272Z,16.88
2018-05-03T06:36:53.261Z,16.88
2018-05-03T06:37:53.251Z,16.88
2018-05-03T06:38:53.256Z,16.88
2018-05-03T06:39:53.228Z,16.88
2018-05-03T06:40:53.214Z,16.88
2018-05-03T06:41:53.210Z,16.88
2018-05-03T06:42:53.196Z,16.88
2018-05-03T06:43:53.185Z,22.50
2018-05-03T06:44:53.176Z,22.50
2018-05-03T06:45:53.164Z,22.50
2018-05-03T06:46:53.152Z,22.50
2018-05-03T06:47:53.142Z,22.50
2018-05-03T06:48:53.130Z,22.50
2018-05-03T06:49:53.121Z,22.50
2018-05-03T06:50:53.115Z,22.50
2018-05-03T06:51:53.102Z,22.50
2018-05-03T06:52:53.090Z,22.50
2018-05-03T06:53:53.081Z,22.50
2018-05-03T06:54:53.070Z,22.50
2018-05-03T06:55:53.059Z,22.50
2018-05-03T06:56:53.048Z,22.50
2018-05-03T06:57:53.038Z,22.50
2018-05-03T06:58:53.027Z,22.50
2018-05-03T06:59:53.016Z,22.50
2018-05-03T07:00:53.006Z,22.50
2018-05-03T07:01:52.996Z,22.50
2018-05-03T07:02:52.985Z,22.50
2018-05-03T07:03:53.026Z,22.50
2018-05-03T07:04:52.963Z,22.50
2018-05-03T07:05:52.953Z,22.50
2018-05-03T07:06:52.946Z,16.88
2018-05-03T07:07:52.935Z,16.88
2018-05-03T07:08:52.923Z,16.88
2018-05-03T07:09:52.970Z,16.88
2018-05-03T07:10:52.905Z,16.88
2018-05-03T07:11:52.891Z,16.88
2018-05-03T07:12:52.883Z,16.88
2018-05-03T07:13:52.874Z,16.88
2018-05-03T07:14:52.863Z,22.50
2018-05-03T07:15:52.857Z,22.50
2018-05-03T07:16:52.842Z,22.50
2018-05-03T07:17:52.834Z,28.13
2018-05-03T07:18:52.822Z,28.13
2018-05-03T07:19:52.815Z,28.13
2018-05-03T07:20:52.800Z,28.13
2018-05-03T07:21:52.793Z,28.13
2018-05-03T07:22:52.785Z,33.75
2018-05-03T07:23:52.797Z,33.75
2018-05-03T07:24:52.761Z,33.75
2018-05-03T07:25:52.751Z,33.75
2018-05-03T07:26:52.741Z,33.75
2018-05-03T07:27:52.733Z,33.75
2018-05-03T07:28:52.721Z,33.75
2018-05-03T07:29:52.719Z,33.75
2018-05-03T07:30:52.707Z,33.75
2018-05-03T07:31:52.695Z,28.13
2018-05-03T07:32:52.683Z,28.13
2018-05-03T07:33:52.671Z,28.13
2018-05-03T07:34:52.678Z,33.75
2018-05-03T07:35:52.667Z,33.75
2018-05-03T07:36:52.644Z,33.75
2018-05-03T07:37:52.634Z,33.75
2018-05-03T07:38:52.630Z,33.75
2018-05-03T07:39:52.614Z,33.75
2018-05-03T07:40:52.609Z,33.75
2018-05-03T07:41:52.595Z,33.75
2018-05-03T07:42:52.586Z,33.75
2018-05-03T07:43:52.579Z,33.75
2018-05-03T07:44:52.566Z,33.75
2018-05-03T07:45:52.554Z,33.75
2018-05-03T07:46:52.544Z,33.75
2018-05-03T07:47:52.538Z,33.75
2018-05-03T07:48:52.526Z,33.75
2018-05-03T07:49:52.517Z,33.75
2018-05-03T07:50:52.505Z,33.75
2018-05-03T07:51:52.496Z,33.75
2018-05-03T07:52:52.485Z,33.75
2018-05-03T07:53:52.483Z,33.75
2018-05-03T07:54:52.467Z,33.75
2018-05-03T07:55:52.457Z,33.75
2018-05-03T07:56:52.446Z,39.38
2018-05-03T07:57:52.438Z,39.38
2018-05-03T07:58:52.428Z,39.38
2018-05-03T07:59:52.420Z,39.38
2018-05-03T08:00:52.409Z,33.75
2018-05-03T08:01:52.409Z,33.75
2018-05-03T08:02:52.391Z,33.75
2018-05-03T08:03:52.378Z,39.38
2018-05-03T08:04:52.377Z,39.38
2018-05-03T08:05:52.362Z,45.00
2018-05-03T08:06:52.348Z,45.00
2018-05-03T08:07:52.339Z,45.00
2018-05-03T08:08:52.333Z,45.00
2018-05-03T08:09:52.317Z,45.00
2018-05-03T08:10:52.310Z,45.00
2018-05-03T08:11:52.304Z,45.00
2018-05-03T08:12:52.289Z,45.00
2018-05-03T08:13:52.277Z,45.00
2018-05-03T08:14:52.270Z,50.63
2018-05-03T08:15:52.257Z,50.63
2018-05-03T08:16:52.251Z,50.63
2018-05-03T08:17:52.238Z,50.63
2018-05-03T08:18:52.229Z,50.63
2018-05-03T08:19:52.225Z,56.25
2018-05-03T08:20:52.212Z,56.25
2018-05-03T08:21:52.199Z,56.25
2018-05-03T08:22:52.196Z,50.63
2018-05-03T08:23:52.189Z,50.63
2018-05-03T08:24:52.172Z,50.63
2018-05-03T08:25:52.166Z,50.63
2018-05-03T08:26:52.153Z,50.63
2018-05-03T08:27:52.151Z,50.63
2018-05-03T08:28:52.134Z,50.63
2018-05-03T08:29:52.124Z,56.25
2018-05-03T08:30:52.116Z,56.25
2018-05-03T08:31:52.170Z,56.25
2018-05-03T08:32:52.096Z,56.25
2018-05-03T08:33:52.090Z,56.25
2018-05-03T08:34:52.078Z,56.25
2018-05-03T08:35:52.069Z,56.25
2018-05-03T08:36:52.058Z,56.25
2018-05-03T08:37:52.051Z,56.25
2018-05-03T08:38:52.042Z,56.25
2018-05-03T08:39:52.036Z,50.63
2018-05-03T08:40:52.022Z,50.63
2018-05-03T08:41:52.015Z,50.63
2018-05-03T08:42:52.008Z,50.63
2018-05-03T08:43:51.995Z,50.63
2018-05-03T08:44:51.987Z,50.63
2018-05-03T08:45:51.979Z,50.63
2018-05-03T08:46:51.971Z,56.25
2018-05-03T08:47:51.963Z,61.88
2018-05-03T08:48:51.953Z,67.50
2018-05-03T08:49:51.942Z,73.13
2018-05-03T08:50:51.937Z,78.75
2018-05-03T08:51:51.940Z,78.75
2018-05-03T08:52:51.916Z,78.75
2018-05-03T08:53:51.910Z,84.38
2018-05-03T08:54:51.901Z,84.38
2018-05-03T08:55:51.932Z,90.00
2018-05-03T08:56:51.886Z,90.00
2018-05-03T08:57:51.876Z,90.00
2018-05-03T08:58:51.874Z,90.00
2018-05-03T08:59:51.861Z,90.00
2018-05-03T09:00:51.852Z,90.00
2018-05-03T09:01:51.856Z,90.00
2018-05-03T09:02:51.834Z,90.00
2018-05-03T09:03:51.828Z,90.00
2018-05-03T09:04:51.817Z,90.00
2018-05-03T09:05:51.811Z,90.00
2018-05-03T09:06:51.801Z,95.63
2018-05-03T09:07:51.871Z,95.63
2018-05-03T09:08:51.784Z,101.25
2018-05-03T09:09:51.776Z,106.88
2018-05-03T09:10:51.768Z,112.50
2018-05-03T09:11:51.760Z,112.50
2018-05-03T09:12:51.753Z,118.13
2018-05-03T09:13:51.743Z,118.13
2018-05-03T09:14:51.738Z,123.75
2018-05-03T09:15:51.729Z,118.13
2018-05-03T09:16:51.718Z,112.50
2018-05-03T09:17:51.710Z,112.50
2018-05-03T09:18:51.703Z,112.50
2018-05-03T09:19:51.696Z,118.13
2018-05-03T09:20:51.688Z,118.13
2018-05-03T09:21:51.687Z,118.13
2018-05-03T09:22:51.669Z,112.50
2018-05-03T09:23:51.665Z,112.50
2018-05-03T09:24:51.655Z,106.88
2018-05-03T09:25:51.644Z,106.88
2018-05-03T09:26:51.640Z,106.88
2018-05-03T09:27:51.634Z,106.88
2018-05-03T09:28:51.622Z,106.88
2018-05-03T09:29:51.614Z,106.88
2018-05-03T09:30:51.606Z,106.88
2018-05-03T09:31:51.595Z,101.25
2018-05-03T09:32:51.589Z,101.25
2018-05-03T09:33:51.653Z,106.88
2018-05-03T09:34:51.572Z,106.88
2018-05-03T09:35:51.567Z,112.50
2018-05-03T09:36:51.553Z,118.13
2018-05-03T09:37:51.547Z,123.75
2018-05-03T09:38:51.539Z,123.75
2018-05-03T09:39:51.530Z,123.75
2018-05-03T09:40:51.518Z,123.75
2018-05-03T09:41:51.511Z,123.75
2018-05-03T09:42:51.506Z,123.75
2018-05-03T09:43:51.495Z,123.75
2018-05-03T09:44:51.500Z,129.38
2018-05-03T09:45:51.479Z,129.38
2018-05-03T09:46:51.470Z,129.38
2018-05-03T09:47:51.466Z,135.00
2018-05-03T09:48:51.454Z,129.38
2018-05-03T09:49:51.446Z,129.38
2018-05-03T09:50:51.440Z,135.00
2018-05-03T09:51:51.437Z,135.00
2018-05-03T09:52:51.435Z,140.63
2018-05-03T09:53:51.416Z,146.25
2018-05-03T09:54:51.407Z,151.88
2018-05-03T09:55:51.400Z,151.88
2018-05-03T09:56:51.397Z,151.88
2018-05-03T09:57:51.390Z,157.50
2018-05-03T09:58:51.384Z,151.88
2018-05-03T09:59:51.375Z,146.25
2018-05-03T10:00:51.366Z,140.63
2018-05-03T10:01:51.362Z,140.63
2018-05-03T10:02:51.353Z,135.00
2018-05-03T10:03:51.349Z,140.63
2018-05-03T10:04:51.415Z,140.63
2018-05-03T10:05:51.331Z,146.25
2018-05-03T10:06:51.327Z,151.88
2018-05-03T10:07:51.320Z,151.88
2018-05-03T10:08:51.311Z,157.50
2018-05-03T10:09:51.308Z,163.13
2018-05-03T10:10:51.296Z,163.13
2018-05-03T10:11:51.296Z,168.75
2018-05-03T10:12:51.285Z,168.75
2018-05-03T10:13:51.276Z,140.63
2018-05-03T10:14:51.272Z,146.25
2018-05-03T10:15:51.272Z,135.00
2018-05-03T10:16:51.258Z,135.00
2018-05-03T10:17:51.254Z,140.63
2018-05-03T10:18:51.251Z,146.25
2018-05-03T10:19:51.240Z,135.00
2018-05-03T10:20:51.232Z,129.38
2018-05-03T10:21:51.250Z,135.00
2018-05-03T10:22:51.223Z,140.63
2018-05-03T10:23:51.216Z,140.63
2018-05-03T10:24:51.212Z,129.38
2018-05-03T10:25:51.203Z,129.38
2018-05-03T10:26:51.200Z,123.75
2018-05-03T10:27:51.194Z,123.75
2018-05-03T10:28:51.187Z,129.38
2018-05-03T10:29:51.194Z,140.63
2018-05-03T10:30:51.172Z,151.88
2018-05-03T10:31:51.170Z,146.25
2018-05-03T10:32:51.162Z,146.25
2018-05-03T10:33:51.155Z,146.25
2018-05-03T10:34:51.149Z,146.25
2018-05-03T10:35:51.239Z,140.63
2018-05-03T10:36:51.137Z,123.75
2018-05-03T10:37:51.132Z,123.75
2018-05-03T10:38:51.129Z,123.75
2018-05-03T10:39:51.121Z,123.75
2018-05-03T10:40:51.114Z,106.88
2018-05-03T10:41:51.150Z,112.50
2018-05-03T10:42:51.107Z,106.88
2018-05-03T10:43:51.099Z,112.50
2018-05-03T10:44:51.090Z,112.50
2018-05-03T10:45:51.085Z,112.50
2018-05-03T10:46:51.080Z,112.50
2018-05-03T10:47:51.077Z,112.50
2018-05-03T10:48:51.073Z,118.13
2018-05-03T10:49:51.061Z,123.75
2018-05-03T10:50:51.056Z,123.75
2018-05-03T10:51:51.050Z,129.38
2018-05-03T10:52:51.045Z,135.00
2018-05-03T10:53:51.036Z,140.63
2018-05-03T10:54:51.032Z,140.63
2018-05-03T10:55:51.023Z,140.63
2018-05-03T10:56:51.018Z,146.25
2018-05-03T10:57:51.010Z,151.88
2018-05-03T10:58:51.006Z,146.25
2018-05-03T10:59:50.999Z,140.63
2018-05-03T11:00:50.993Z,151.88
2018-05-03T11:01:50.987Z,140.63
2018-05-03T11:02:50.980Z,140.63
2018-05-03T11:03:50.974Z,146.25
2018-05-03T11:04:50.966Z,151.88
2018-05-03T11:05:50.959Z,146.25
2018-05-03T11:06:50.953Z,151.88
2018-05-03T11:07:50.948Z,174.38
2018-05-03T11:08:50.939Z,163.13
2018-05-03T11:09:50.934Z,151.88
2018-05-03T11:10:50.930Z,180.00
2018-05-03T11:11:50.921Z,163.13
2018-05-03T11:12:50.917Z,174.38
2018-05-03T11:13:50.916Z,168.75
2018-05-03T11:14:50.907Z,151.88
2018-05-03T11:15:50.900Z,151.88
2018-05-03T11:16:50.897Z,146.25
2018-05-03T11:17:50.890Z,146.25
2018-05-03T11:18:50.882Z,151.88
2018-05-03T11:19:50.877Z,151.88
2018-05-03T11:20:50.871Z,163.13
2018-05-03T11:21:50.868Z,180.00
2018-05-03T11:22:50.863Z,163.13
2018-05-03T11:23:50.858Z,163.13
2018-05-03T11:24:50.849Z,163.13
2018-05-03T11:25:50.858Z,163.13
2018-05-03T11:26:50.837Z,163.13
2018-05-03T11:27:50.833Z,174.38
2018-05-03T11:28:50.831Z,174.38
2018-05-03T11:29:50.821Z,163.13
2018-05-03T11:30:50.815Z,157.50
2018-05-03T11:31:50.815Z,168.75
2018-05-03T11:32:50.805Z,174.38
2018-05-03T11:33:50.799Z,151.88
2018-05-03T11:34:50.795Z,146.25
2018-05-03T11:35:50.788Z,146.25
2018-05-03T11:36:50.833Z,140.63
2018-05-03T11:37:50.780Z,140.63
2018-05-03T11:38:50.774Z,135.00
2018-05-03T11:39:50.770Z,135.00
2018-05-03T11:40:50.767Z,129.38
2018-05-03T11:41:50.759Z,129.38
2018-05-03T11:42:50.752Z,129.38
2018-05-03T11:43:50.746Z,123.75
2018-05-03T11:44:50.742Z,123.75
2018-05-03T11:45:50.739Z,129.38
2018-05-03T11:46:50.736Z,135.00
2018-05-03T11:47:50.730Z,146.25
2018-05-03T11:48:50.728Z,151.88
2018-05-03T11:49:50.717Z,157.50
2018-05-03T11:50:50.717Z,157.50
2018-05-03T11:51:50.707Z,163.13
2018-05-03T11:52:50.701Z,163.13
2018-05-03T11:53:50.696Z,168.75
2018-05-03T11:54:50.693Z,163.13
2018-05-03T11:55:50.684Z,185.63
2018-05-03T11:56:50.686Z,185.63
2018-05-03T11:57:50.679Z,191.25
2018-05-03T11:58:50.675Z,185.63
2018-05-03T11:59:50.665Z,174.38
2018-05-03T12:00:50.662Z,168.75
2018-05-03T12:01:50.658Z,151.88
2018-05-03T12:02:50.654Z,146.25
2018-05-03T12:03:50.652Z,151.88
2018-05-03T12:04:50.648Z,146.25
2018-05-03T12:05:50.639Z,157.50
2018-05-03T12:06:50.632Z,168.75
2018-05-03T12:07:50.630Z,151.88
2018-05-03T12:08:50.623Z,151.88
2018-05-03T12:09:50.623Z,151.88
2018-05-03T12:10:50.615Z,151.88
2018-05-03T12:11:50.695Z,151.88
2018-05-03T12:12:50.607Z,146.25
2018-05-03T12:13:50.603Z,140.63
2018-05-03T12:14:50.599Z,129.38
2018-05-03T12:15:50.595Z,129.38
2018-05-03T12:16:50.590Z,129.38
2018-05-03T12:17:50.584Z,135.00
2018-05-03T12:18:50.581Z,129.38
2018-05-03T12:19:50.575Z,123.75
2018-05-03T12:20:50.569Z,118.13
2018-05-03T12:21:50.563Z,118.13
2018-05-03T12:22:50.562Z,112.50
2018-05-03T12:23:50.559Z,112.50
2018-05-03T12:24:50.549Z,112.50
2018-05-03T12:25:50.549Z,112.50
2018-05-03T12:26:50.543Z,112.50
2018-05-03T12:27:50.539Z,106.88
2018-05-03T12:28:50.534Z,101.25
2018-05-03T12:29:50.529Z,101.25
2018-05-03T12:30:50.526Z,95.63
2018-05-03T12:31:50.518Z,90.00
2018-05-03T12:32:50.515Z,90.00
2018-05-03T12:33:50.510Z,84.38
2018-05-03T12:34:50.542Z,78.75
2018-05-03T12:35:50.501Z,78.75
2018-05-03T12:36:50.503Z,78.75
2018-05-03T12:37:50.489Z,78.75
2018-05-03T12:38:50.485Z,73.13
2018-05-03T12:39:50.485Z,73.13
2018-05-03T12:40:50.477Z,73.13
2018-05-03T12:41:50.473Z,73.13
2018-05-03T12:42:50.467Z,67.50
2018-05-03T12:43:50.461Z,67.50
2018-05-03T12:44:50.460Z,67.50
2018-05-03T12:45:50.450Z,67.50
2018-05-03T12:46:50.447Z,67.50
2018-05-03T12:47:50.441Z,67.50
2018-05-03T12:48:50.438Z,67.50
2018-05-03T12:49:50.432Z,67.50
2018-05-03T12:50:50.424Z,67.50
2018-05-03T12:51:50.429Z,67.50
2018-05-03T12:52:50.411Z,67.50
2018-05-03T12:53:50.413Z,73.13
2018-05-03T12:54:50.402Z,73.13
2018-05-03T12:55:50.395Z,73.13
2018-05-03T12:56:50.390Z,78.75
2018-05-03T12:57:50.385Z,78.75